Time;durP1;ratioP1;P1;durP2;ratioP2;P2;SDS_P1;SDS_P2;PMS_P1;PMS_P2;Temp;Humidity;BMP_temperature;BMP_pressure;BME280_temperature;BME280_humidity;BME280_pressure;Samples;Min_cycle;Max_cycle;Signal;HPM_P1;HPM_P2
2022/04/22 00:00:26;;;;;;;10.13;7.45;;;13.40;50.80;;;;;;5130223;27;20023;-55
2022/04/22 00:02:52;;;;;;;11.57;7.22;;;13.40;50.80;;;;;;5128099;27;20034;-56
2022/04/22 00:05:17;;;;;;;9.75;7.00;;;13.40;50.90;;;;;;5112691;27;20023;-57
2022/04/22 00:07:43;;;;;;;7.57;6.78;;;13.30;51.10;;;;;;5128306;27;20556;-59
2022/04/22 00:10:10;;;;;;;9.20;6.75;;;13.30;51.10;;;;;;5131179;27;20023;-51
2022/04/22 00:12:37;;;;;;;14.27;7.30;;;13.20;51.50;;;;;;5112289;27;20024;-55
2022/04/22 00:15:03;;;;;;;10.20;6.88;;;13.10;51.60;;;;;;5128463;27;20015;-53
2022/04/22 00:17:29;;;;;;;14.00;7.53;;;13.10;51.80;;;;;;5113104;27;20098;-55
2022/04/22 00:20:13;;;;;;;12.70;7.20;;;13.20;51.80;;;;;;5127639;27;20411;-59
2022/04/22 00:22:40;;;;;;;;;;;13.20;52.00;;;;;;5110170;27;20027;-56
2022/04/22 00:25:08;;;;;;;9.20;6.88;;;13.10;52.40;;;;;;5129943;27;19910;-52
2022/04/22 00:27:33;;;;;;;10.50;7.35;;;13.10;52.10;;;;;;5109756;27;20027;-53
2022/04/22 00:29:59;;;;;;;11.50;6.93;;;13.00;52.20;;;;;;5112128;27;20356;-48
2022/04/22 00:32:25;;;;;;;9.88;7.45;;;13.00;52.50;;;;;;5114036;27;20023;-50
2022/04/22 00:34:50;;;;;;;11.38;6.82;;;13.00;52.40;;;;;;5112581;27;20030;-57
2022/04/22 00:37:16;;;;;;;10.05;6.68;;;13.00;52.50;;;;;;5129814;27;20134;-56
2022/04/22 00:39:41;;;;;;;7.72;6.57;;;12.90;52.60;;;;;;5127921;27;20022;-54
2022/04/22 00:42:10;;;;;;;9.02;7.47;;;12.90;52.70;;;;;;5128993;27;20114;-53
2022/04/22 00:44:36;;;;;;;10.13;7.07;;;12.80;52.80;;;;;;5110034;27;20034;-54
2022/04/22 00:47:01;;;;;;;11.52;7.43;;;12.70;53.00;;;;;;5127359;27;20062;-55
2022/04/22 00:49:27;;;;;;;11.15;6.82;;;12.70;53.20;;;;;;5128295;27;20058;-53
2022/04/22 00:51:53;;;;;;;9.05;7.35;;;12.70;53.50;;;;;;5127313;27;20023;-53
2022/04/22 00:54:19;;;;;;;15.55;7.40;;;12.60;53.70;;;;;;5128064;27;20019;-56
2022/04/22 00:56:45;;;;;;;11.40;7.30;;;12.50;53.90;;;;;;5128570;27;20019;-53
2022/04/22 00:59:11;;;;;;;18.38;7.70;;;12.50;53.80;;;;;;5127330;27;20535;-53
2022/04/22 01:01:38;;;;;;;10.93;7.38;;;12.50;54.00;;;;;;5110536;27;20059;-51
2022/04/22 01:09:51;;;;;;;14.32;7.88;;;12.50;53.80;;;;;;5129899;27;20062;-51
2022/04/22 01:12:18;;;;;;;10.23;7.82;;;12.50;53.80;;;;;;5126540;27;20035;-54
2022/04/22 01:14:44;;;;;;;12.23;8.20;;;12.50;53.80;;;;;;5127934;27;20072;-51
2022/04/22 01:17:11;;;;;;;9.80;7.75;;;12.50;53.80;;;;;;5127112;27;20090;-58
2022/04/22 01:19:37;;;;;;;11.48;7.80;;;12.50;53.80;;;;;;5108704;27;20037;-52
2022/04/22 01:22:03;;;;;;;10.27;8.68;;;12.50;53.50;;;;;;5110084;27;20027;-52
2022/04/22 01:24:29;;;;;;;10.05;8.00;;;12.50;53.50;;;;;;5110943;27;20027;-56
2022/04/22 01:26:56;;;;;;;13.77;8.25;;;12.40;53.90;;;;;;5128329;27;20098;-55
2022/04/22 01:29:22;;;;;;;12.93;7.65;;;12.40;53.80;;;;;;5108845;28;20031;-57
2022/04/22 01:31:48;;;;;;;10.85;7.75;;;12.40;53.80;;;;;;5128923;27;20023;-55
2022/04/22 01:34:13;;;;;;;10.35;8.52;;;12.40;53.80;;;;;;5109620;28;20019;-52
2022/04/22 01:36:39;;;;;;;10.98;7.82;;;12.40;53.90;;;;;;5132014;27;20019;-52
2022/04/22 01:39:05;;;;;;;17.98;8.10;;;12.30;54.00;;;;;;5127705;27;20115;-53
2022/04/22 01:41:31;;;;;;;9.77;7.75;;;12.30;54.00;;;;;;5130202;27;20495;-59
2022/04/22 01:43:57;;;;;;;12.82;7.93;;;12.30;53.90;;;;;;5108225;28;20054;-53
2022/04/22 01:46:23;;;;;;;10.38;9.02;;;12.30;54.40;;;;;;5126776;27;20042;-56
2022/04/22 01:48:49;;;;;;;14.40;8.40;;;12.20;54.40;;;;;;5127222;27;20042;-57
2022/04/22 01:51:15;;;;;;;9.65;8.10;;;12.20;54.40;;;;;;5108485;28;20027;-56
2022/04/22 01:53:41;;;;;;;14.43;9.02;;;12.20;54.40;;;;;;5110636;28;20026;-56
2022/04/22 01:56:07;;;;;;;11.88;8.50;;;12.30;54.50;;;;;;5127788;27;20379;-51
2022/04/22 01:58:32;;;;;;;13.02;8.60;;;12.30;54.20;;;;;;5128820;28;20371;-47
2022/04/22 02:00:58;;;;;;;13.15;8.32;;;12.30;54.10;;;;;;5129942;27;20379;-52
2022/04/22 02:03:24;;;;;;;12.13;9.20;;;12.40;54.00;;;;;;5129052;28;20102;-51
2022/04/22 02:05:51;;;;;;;13.75;8.65;;;12.40;53.90;;;;;;5111432;28;20019;-54
2022/04/22 02:08:17;;;;;;;13.18;8.77;;;12.40;53.80;;;;;;5130160;28;20031;-56
2022/04/22 02:10:43;;;;;;;11.70;8.73;;;12.40;53.90;;;;;;5128260;28;20023;-54
2022/04/22 02:13:09;;;;;;;12.10;9.00;;;12.40;54.50;;;;;;5110187;28;20016;-53
2022/04/22 02:15:35;;;;;;;14.10;9.27;;;12.30;53.90;;;;;;5092119;28;20035;-58
2022/04/22 02:18:01;;;;;;;13.38;8.93;;;12.30;54.00;;;;;;5126336;27;20053;-52
2022/04/22 02:20:27;;;;;;;13.68;8.98;;;12.20;54.00;;;;;;5127001;28;20027;-50
2022/04/22 02:22:53;;;;;;;12.10;9.27;;;12.20;54.10;;;;;;5127031;27;20026;-59
2022/04/22 02:25:19;;;;;;;14.75;9.60;;;12.20;54.10;;;;;;5126917;28;20019;-57
2022/04/22 02:30:29;;;;;;;12.35;8.88;;;12.20;54.00;;;;;;5113493;27;20030;-53
2022/04/22 02:32:56;;;;;;;11.60;8.57;;;12.20;53.90;;;;;;5112165;27;20020;-57
2022/04/22 02:35:21;;;;;;;10.57;9.27;;;12.10;53.60;;;;;;5130353;27;20015;-50
2022/04/22 02:37:52;;;;;;;15.18;8.63;;;12.20;53.60;;;;;;5116594;27;20023;-49
2022/04/22 02:45:48;;;;;;;12.70;8.23;;;12.10;53.20;;;;;;5130620;27;20108;-54
2022/04/22 02:48:13;;;;;;;11.05;8.65;;;12.20;53.00;;;;;;5129546;27;20562;-52
2022/04/22 02:50:39;;;;;;;11.10;8.02;;;12.30;52.60;;;;;;5130044;27;20333;-52
2022/04/22 02:53:05;;;;;;;11.35;8.85;;;12.30;52.20;;;;;;5129968;27;20097;-55
2022/04/22 02:55:31;;;;;;;11.10;8.38;;;12.40;52.00;;;;;;5130876;27;20200;-53
2022/04/22 02:57:57;;;;;;;12.35;8.00;;;12.40;51.90;;;;;;5130058;27;20026;-57
2022/04/22 03:00:24;;;;;;;11.38;8.00;;;12.50;51.70;;;;;;5111687;27;20368;-58
2022/04/22 03:02:50;;;;;;;16.15;8.75;;;12.50;51.50;;;;;;5130498;27;20016;-57
2022/04/22 03:05:16;;;;;;;13.48;9.40;;;12.60;51.40;;;;;;5130398;27;20045;-55
2022/04/22 03:07:41;;;;;;;11.23;9.18;;;12.60;51.30;;;;;;5133767;27;20047;-53
2022/04/22 03:10:07;;;;;;;15.68;9.55;;;12.60;51.20;;;;;;5112970;27;20054;-54
2022/04/22 03:12:34;;;;;;;10.23;8.55;;;12.70;51.20;;;;;;5111285;27;20388;-56
2022/04/22 03:15:00;;;;;;;17.10;9.05;;;12.70;51.10;;;;;;5110671;27;20089;-56
2022/04/22 03:17:26;;;;;;;14.23;10.00;;;12.60;51.20;;;;;;5111624;27;20019;-59
2022/04/22 03:19:52;;;;;;;12.23;9.50;;;12.50;51.40;;;;;;5130629;27;20026;-52
2022/04/22 03:22:18;;;;;;;12.45;9.15;;;12.50;51.60;;;;;;5129204;27;20238;-58
2022/04/22 03:24:44;;;;;;;14.90;9.48;;;12.50;51.70;;;;;;5131054;27;20479;-56
2022/04/22 03:27:10;;;;;;;11.45;8.93;;;12.50;51.70;;;;;;5128846;27;20027;-55
2022/04/22 03:29:35;;;;;;;11.80;9.02;;;12.50;51.80;;;;;;5111091;27;20472;-57
2022/04/22 03:32:02;;;;;;;14.18;9.98;;;12.50;51.90;;;;;;5129674;27;20034;-61
2022/04/22 03:34:28;;;;;;;14.07;9.93;;;12.40;52.10;;;;;;5132819;27;20038;-62
2022/04/22 03:36:54;;;;;;;11.80;9.32;;;12.40;52.20;;;;;;5131338;27;20019;-57
2022/04/22 03:39:20;;;;;;;15.00;11.00;;;12.50;52.10;;;;;;5132320;27;20022;-50
2022/04/22 03:41:46;;;;;;;12.45;9.82;;;12.50;52.00;;;;;;5130311;27;20058;-59
2022/04/22 03:44:12;;;;;;;19.75;10.10;;;12.60;52.00;;;;;;5128856;27;20100;-53
2022/04/22 03:46:38;;;;;;;14.65;9.88;;;12.70;52.00;;;;;;5110779;27;20035;-56
2022/04/22 03:49:04;;;;;;;17.63;9.35;;;12.70;51.90;;;;;;5110079;27;20140;-58
2022/04/22 03:51:31;;;;;;;13.27;10.20;;;12.70;51.90;;;;;;5130828;27;20487;-53
2022/04/22 03:53:57;;;;;;;15.60;10.15;;;12.70;51.80;;;;;;5112104;27;20023;-52
2022/04/22 03:59:06;;;;;;;;;;;12.80;51.90;;;;;;5128895;27;20034;-53
2022/04/22 04:01:33;;;;;;;16.58;10.55;;;12.80;52.00;;;;;;5112012;27;19903;-60
2022/04/22 04:03:59;;;;;;;15.57;10.73;;;12.80;51.70;;;;;;5129597;27;20093;-57
2022/04/22 04:06:26;;;;;;;17.65;10.57;;;12.80;51.60;;;;;;5129850;27;20024;-50
2022/04/22 04:17:06;;;;;;;18.67;10.93;;;12.90;51.60;;;;;;5129151;27;20026;-58
2022/04/22 04:25:00;;;;;;;18.15;11.50;;;12.90;51.20;;;;;;5128772;27;20031;-52
2022/04/22 04:27:25;;;;;;;16.80;10.68;;;13.00;51.00;;;;;;5131498;27;20023;-58
2022/04/22 04:29:51;;;;;;;20.17;11.20;;;12.90;51.00;;;;;;5128569;27;20019;-57
2022/04/22 04:32:17;;;;;;;16.05;10.43;;;12.90;50.50;;;;;;5127303;27;20166;-52
2022/04/22 04:34:44;;;;;;;13.80;9.80;;;12.90;50.40;;;;;;5109865;27;20027;-56
2022/04/22 04:37:12;;;;;;;16.45;10.43;;;12.80;50.70;;;;;;5111295;27;20195;-59
2022/04/22 04:39:37;;;;;;;19.45;11.10;;;12.80;50.80;;;;;;5110091;27;20123;-57
2022/04/22 04:42:03;;;;;;;18.40;11.27;;;12.80;50.60;;;;;;5132032;27;20099;-61
2022/04/22 04:44:29;;;;;;;16.13;11.05;;;12.80;50.70;;;;;;5130598;27;20103;-51
2022/04/22 04:46:55;;;;;;;17.48;11.82;;;12.80;50.60;;;;;;5131260;27;20035;-55
2022/04/22 04:49:21;;;;;;;22.58;12.27;;;12.80;50.60;;;;;;5092087;27;20471;-56
2022/04/22 04:51:47;;;;;;;18.38;11.77;;;12.80;50.80;;;;;;5109623;27;20031;-49
2022/04/22 04:54:12;;;;;;;20.33;11.90;;;12.90;51.00;;;;;;5129853;27;20016;-53
2022/04/22 04:56:38;;;;;;;21.92;12.32;;;13.00;51.20;;;;;;5109943;27;20088;-52
2022/04/22 04:59:04;;;;;;;15.38;11.35;;;13.00;51.00;;;;;;5127832;27;20038;-58
2022/04/22 05:01:30;;;;;;;18.77;12.10;;;13.00;51.20;;;;;;5127424;27;20042;-57
2022/04/22 05:03:55;;;;;;;14.30;11.30;;;13.00;51.30;;;;;;5129319;27;20111;-49
2022/04/22 05:06:21;;;;;;;21.38;13.35;;;13.00;51.50;;;;;;5132462;27;20027;-55
2022/04/22 05:08:47;;;;;;;17.92;13.05;;;13.00;52.00;;;;;;5114888;27;20030;-49
2022/04/22 05:11:13;;;;;;;15.85;11.85;;;13.00;52.20;;;;;;5132546;27;20066;-52
2022/04/22 05:13:38;;;;;;;22.98;13.00;;;13.00;52.00;;;;;;5133283;27;20376;-50
2022/04/22 05:16:04;;;;;;;19.73;13.23;;;13.00;52.30;;;;;;5132912;27;20460;-52
2022/04/22 05:18:30;;;;;;;19.50;12.75;;;13.10;52.90;;;;;;5132314;27;20043;-51
2022/04/22 05:20:56;;;;;;;18.13;13.77;;;13.10;52.60;;;;;;5132591;27;20144;-50
2022/04/22 05:23:22;;;;;;;20.30;13.43;;;13.20;51.70;;;;;;5096744;28;20476;-52
2022/04/22 05:25:48;;;;;;;22.05;13.93;;;13.20;51.20;;;;;;5132632;27;20038;-50
2022/04/22 05:28:14;;;;;;;20.25;13.23;;;13.10;51.10;;;;;;5131352;27;20102;-54
2022/04/22 05:33:23;;;;;;;;;;;13.20;51.40;;;;;;5132314;27;20026;-54
2022/04/22 05:35:49;;;;;;;19.80;13.88;;;13.40;51.90;;;;;;5132186;27;19903;-52
2022/04/22 05:38:15;;;;;;;20.83;13.43;;;13.40;51.70;;;;;;5131822;27;20019;-53
2022/04/22 05:40:44;;;;;;;25.55;13.98;;;13.40;51.30;;;;;;5131975;27;20098;-54
2022/04/22 05:43:10;;;;;;;25.42;14.05;;;13.40;50.90;;;;;;5131042;28;20134;-59
2022/04/22 05:45:37;;;;;;;21.83;13.88;;;13.40;50.70;;;;;;5113931;28;20114;-58
2022/04/22 05:48:02;;;;;;;18.20;12.77;;;13.30;50.20;;;;;;5131825;27;20027;-53
2022/04/22 05:50:29;;;;;;;24.08;13.50;;;13.30;50.30;;;;;;5131635;27;20011;-52
2022/04/22 05:52:55;;;;;;;20.98;13.40;;;13.20;50.20;;;;;;5131955;27;20118;-51
2022/04/22 05:55:27;;;;;;;23.35;13.43;;;13.10;50.10;;;;;;5131763;27;20027;-51
2022/04/22 05:57:53;;;;;;;23.98;13.10;;;13.10;50.50;;;;;;5132351;28;20011;-54
2022/04/22 06:00:23;;;;;;;19.73;12.93;;;13.10;50.10;;;;;;5113026;28;20019;-51
2022/04/22 06:02:49;;;;;;;23.40;13.02;;;13.00;49.70;;;;;;5132407;27;20072;-56
2022/04/22 06:05:17;;;;;;;21.92;13.05;;;12.90;49.60;;;;;;5132501;27;20023;-50
2022/04/22 06:07:44;;;;;;;18.73;12.52;;;12.80;49.80;;;;;;5136535;27;20019;-54
2022/04/22 06:12:56;;;;;;;20.40;12.77;;;12.80;50.10;;;;;;5136660;27;20079;-51
2022/04/22 06:15:22;;;;;;;19.10;12.90;;;12.90;49.80;;;;;;5116864;27;20024;-51
2022/04/22 06:17:48;;;;;;;17.83;12.63;;;12.90;50.00;;;;;;5135884;27;20023;-49
2022/04/22 06:20:14;;;;;;;19.13;13.32;;;13.00;50.40;;;;;;5117303;27;20464;-60
2022/04/22 06:22:40;;;;;;;19.17;13.00;;;13.10;50.90;;;;;;5136162;27;20391;-47
2022/04/22 06:25:08;;;;;;;28.38;14.38;;;13.10;50.80;;;;;;5117416;27;20118;-52
2022/04/22 06:27:37;;;;;;;18.63;13.90;;;13.20;51.00;;;;;;5135155;27;20035;-48
2022/04/22 06:30:10;;;;;;;21.55;13.93;;;13.20;50.60;;;;;;5117091;27;20030;-53
2022/04/22 06:32:37;;;;;;;23.17;13.75;;;13.20;51.10;;;;;;5134914;27;20019;-54
2022/04/22 06:35:04;;;;;;;25.08;15.25;;;13.30;51.50;;;;;;5135865;27;20045;-57
2022/04/22 06:37:37;;;;;;;22.42;14.48;;;13.40;52.30;;;;;;5134924;27;20023;-54
2022/04/22 06:45:48;;;;;;;26.05;15.50;;;13.30;52.20;;;;;;5134400;27;20053;-53
2022/04/22 06:48:17;;;;;;;22.00;15.43;;;13.40;52.50;;;;;;5115591;27;20023;-60
2022/04/22 06:50:48;;;;;;;19.65;15.65;;;13.40;52.10;;;;;;5135126;27;20027;-49
2022/04/22 06:53:16;;;;;;;19.75;14.88;;;13.40;52.50;;;;;;5116239;27;20027;-61
2022/04/22 06:55:43;;;;;;;19.80;14.50;;;13.20;52.60;;;;;;5135354;27;20022;-51
2022/04/22 06:58:11;;;;;;;20.88;14.35;;;13.10;52.60;;;;;;5135588;27;20023;-50
2022/04/22 07:00:41;;;;;;;23.15;14.75;;;13.00;52.80;;;;;;5134811;27;20015;-54
2022/04/22 07:03:07;;;;;;;22.42;15.00;;;13.00;53.00;;;;;;5116966;27;20019;-51
2022/04/22 07:05:35;;;;;;;23.77;14.93;;;12.90;53.40;;;;;;5116045;27;20061;-48
2022/04/22 07:08:06;;;;;;;24.30;14.82;;;12.90;53.60;;;;;;5116965;27;20510;-51
2022/04/22 07:10:33;;;;;;;24.60;15.70;;;12.60;53.80;;;;;;5099644;27;20066;-52
2022/04/22 07:12:59;;;;;;;24.63;15.20;;;12.50;54.30;;;;;;5116827;27;20064;-53
2022/04/22 07:15:26;;;;;;;25.02;16.30;;;12.60;54.90;;;;;;5115861;27;20403;-52
2022/04/22 07:17:53;;;;;;;22.88;15.90;;;12.60;55.10;;;;;;5135243;27;20026;-50
2022/04/22 07:20:20;;;;;;;22.92;16.38;;;12.60;55.00;;;;;;5115939;27;20029;-60
2022/04/22 07:22:46;;;;;;;24.08;17.58;;;12.50;55.80;;;;;;5116439;27;20044;-54
2022/04/22 07:28:16;;;;;;;22.05;16.75;;;12.60;56.90;;;;;;5135206;27;20104;-48
2022/04/22 07:30:46;;;;;;;23.38;17.27;;;12.40;56.70;;;;;;5134508;27;20023;-52
2022/04/22 07:33:12;;;;;;;23.27;17.02;;;12.20;56.90;;;;;;5116551;27;20471;-56
2022/04/22 07:35:39;;;;;;;24.30;17.83;;;12.10;57.90;;;;;;5115797;27;20092;-53
2022/04/22 07:38:06;;;;;;;21.50;17.27;;;12.20;58.50;;;;;;5116496;27;20023;-55
2022/04/22 07:40:32;;;;;;;24.48;19.60;;;12.30;58.60;;;;;;5115809;27;20023;-50
2022/04/22 07:48:26;;;;;;;21.55;18.75;;;12.70;59.50;;;;;;5093291;28;19911;-55
2022/04/22 07:53:37;;;;;;;27.85;17.75;;;12.70;58.40;;;;;;5092127;28;20412;-57
2022/04/22 07:56:03;;;;;;;24.17;18.15;;;12.70;58.60;;;;;;5091456;28;20020;-58
2022/04/22 07:58:32;;;;;;;25.38;18.05;;;12.70;58.40;;;;;;5092559;28;20099;-53
2022/04/22 08:00:59;;;;;;;29.58;17.98;;;12.80;59.60;;;;;;5092118;28;20116;-55
2022/04/22 08:03:24;;;;;;;26.13;18.65;;;12.90;58.70;;;;;;5091271;28;20023;-54
2022/04/22 08:05:51;;;;;;;23.65;17.95;;;12.90;58.50;;;;;;5093555;28;20040;-58
2022/04/22 08:08:17;;;;;;;24.67;18.83;;;13.00;58.50;;;;;;5093550;28;20034;-55
2022/04/22 08:10:44;;;;;;;21.75;17.50;;;13.00;58.70;;;;;;5091476;28;20188;-53
2022/04/22 08:13:11;;;;;;;24.55;18.83;;;13.00;58.90;;;;;;5093412;28;20021;-52
2022/04/22 08:15:37;;;;;;;28.20;19.77;;;12.90;59.00;;;;;;5091085;28;20028;-53
2022/04/22 08:18:04;;;;;;;34.67;20.17;;;13.00;59.30;;;;;;5091852;28;20565;-54
2022/04/22 08:20:35;;;;;;;30.42;20.48;;;13.10;59.90;;;;;;5092339;28;20024;-50
2022/04/22 08:23:01;;;;;;;46.05;24.48;;;13.30;59.60;;;;;;5091751;28;20494;-57
2022/04/22 08:25:27;;;;;;;36.28;21.95;;;13.40;59.40;;;;;;5092411;28;20024;-53
2022/04/22 08:27:53;;;;;;;34.45;21.90;;;13.40;59.30;;;;;;5092156;28;20020;-54
2022/04/22 08:30:19;;;;;;;32.10;22.45;;;13.30;59.70;;;;;;5091521;28;20020;-60
2022/04/22 08:32:45;;;;;;;29.00;22.02;;;13.40;60.10;;;;;;5091853;28;20034;-54
2022/04/22 08:35:11;;;;;;;36.90;22.80;;;13.50;60.10;;;;;;5091598;28;20055;-54
2022/04/22 08:37:38;;;;;;;34.80;22.02;;;13.50;60.30;;;;;;5091056;28;20024;-53
2022/04/22 08:40:05;;;;;;;30.60;22.85;;;13.60;60.20;;;;;;5090822;28;20024;-56
2022/04/22 08:42:37;;;;;;;31.42;21.65;;;13.60;59.90;;;;;;5116232;27;20051;-57
2022/04/22 08:45:03;;;;;;;36.67;20.98;;;13.60;59.40;;;;;;5115221;27;20024;-54
2022/04/22 08:50:16;;;;;;;29.30;23.25;;;13.20;59.70;;;;;;5133652;27;20062;-54
2022/04/22 08:52:47;;;;;;;25.98;19.95;;;13.40;59.50;;;;;;5113186;27;20029;-55
2022/04/22 08:55:13;;;;;;;28.63;20.70;;;13.40;59.20;;;;;;5114768;27;20068;-55
2022/04/22 08:57:41;;;;;;;26.02;19.00;;;13.30;59.50;;;;;;5132731;27;20038;-56
2022/04/22 09:00:08;;;;;;;25.98;19.55;;;13.40;59.80;;;;;;5132972;27;20379;-57
2022/04/22 09:02:34;;;;;;;28.48;19.25;;;13.50;59.70;;;;;;5131562;27;20034;-55
2022/04/22 09:05:00;;;;;;;30.52;20.05;;;13.50;59.10;;;;;;5133318;27;20023;-55
2022/04/22 09:07:29;;;;;;;26.35;19.98;;;13.50;58.80;;;;;;5132646;27;20034;-61
2022/04/22 09:09:55;;;;;;;32.30;21.63;;;13.20;59.20;;;;;;5113544;27;20019;-54
2022/04/22 09:12:25;;;;;;;22.60;19.52;;;13.30;59.70;;;;;;5131943;27;20035;-57
2022/04/22 09:14:53;;;;;;;24.73;18.75;;;13.50;60.00;;;;;;5114179;27;20026;-55
2022/04/22 09:17:29;;;;;;;26.08;19.95;;;13.60;59.80;;;;;;5132979;27;20019;-55
2022/04/22 09:19:57;;;;;;;31.88;19.85;;;13.60;59.10;;;;;;5114427;27;20080;-52
2022/04/22 09:22:28;;;;;;;26.38;20.17;;;13.50;59.40;;;;;;5132284;27;20464;-57
2022/04/22 09:24:55;;;;;;;22.70;19.55;;;13.60;59.80;;;;;;5130665;27;20039;-50
2022/04/22 09:27:50;;;;;;;25.13;20.10;;;13.70;60.20;;;;;;5114233;27;20232;-52
2022/04/22 09:30:20;;;;;;;27.55;19.55;;;13.90;60.30;;;;;;5091264;28;20164;-53
2022/04/22 09:32:46;;;;;;;31.52;22.40;;;14.10;60.00;;;;;;5129430;27;20143;-54
2022/04/22 09:35:15;;;;;;;32.33;22.60;;;14.00;59.70;;;;;;5100340;27;20429;-55
2022/04/22 09:43:53;;;;;;;27.65;20.23;;;14.10;59.90;;;;;;5130354;27;20399;-59
2022/04/22 09:46:22;;;;;;;27.00;20.48;;;14.20;59.70;;;;;;5121281;27;20023;-56
2022/04/22 09:48:48;;;;;;;25.40;19.65;;;14.40;59.60;;;;;;5102959;28;20083;-59
2022/04/22 09:51:22;;;;;;;25.08;20.45;;;14.50;59.50;;;;;;5100345;28;20020;-55
2022/04/22 09:54:11;;;;;;;29.50;20.65;;;14.40;59.50;;;;;;5106359;28;20079;-52
2022/04/22 09:56:38;;;;;;;30.50;21.05;;;14.40;58.90;;;;;;5122955;28;20015;-61
2022/04/22 09:59:29;;;;;;;27.90;21.02;;;14.20;59.40;;;;;;5122602;27;20322;-57
2022/04/22 10:01:56;;;;;;;23.38;20.38;;;14.30;59.70;;;;;;5129666;28;20019;-54
2022/04/22 10:04:23;;;;;;;32.83;23.13;;;14.40;59.80;;;;;;5111921;28;20023;-57
2022/04/22 10:06:50;;;;;;;23.70;20.70;;;14.40;59.70;;;;;;5129526;27;20019;-53
2022/04/22 10:09:18;;;;;;;25.73;20.63;;;14.40;59.60;;;;;;5131270;27;20046;-56
2022/04/22 10:11:48;;;;;;;24.05;21.55;;;14.40;59.50;;;;;;5110390;28;20030;-54
2022/04/22 10:14:19;;;;;;;26.80;22.23;;;14.30;59.90;;;;;;5132381;27;20026;-55
2022/04/22 10:16:45;;;;;;;25.08;21.92;;;14.30;60.40;;;;;;5129581;28;20039;-58
2022/04/22 10:19:12;;;;;;;31.52;22.73;;;14.30;60.40;;;;;;5122238;27;20119;-58
2022/04/22 10:21:40;;;;;;;28.20;21.02;;;14.30;60.90;;;;;;5124433;27;20102;-51
2022/04/22 10:24:08;;;;;;;30.20;23.30;;;14.30;61.00;;;;;;5113682;28;20027;-51
2022/04/22 10:26:34;;;;;;;30.08;22.60;;;14.40;61.20;;;;;;5130895;27;20019;-49
2022/04/22 10:29:03;;;;;;;28.42;22.40;;;14.40;61.10;;;;;;5124566;27;20177;-58
2022/04/22 10:31:29;;;;;;;27.95;23.15;;;14.40;61.50;;;;;;5111277;28;20027;-54
2022/04/22 10:34:05;;;;;;;24.20;21.60;;;14.40;61.60;;;;;;5128870;28;20108;-58
2022/04/22 10:36:32;;;;;;;27.55;22.48;;;14.50;61.40;;;;;;5124297;28;20019;-56
2022/04/22 10:38:59;;;;;;;29.38;26.10;;;14.50;61.90;;;;;;5128014;28;20053;-53
2022/04/22 10:41:25;;;;;;;26.75;23.85;;;14.50;62.00;;;;;;5095255;28;20467;-58
2022/04/22 10:49:43;;;;;;;30.88;23.70;;;14.50;62.20;;;;;;5132098;28;20030;-54
2022/04/22 10:52:14;;;;;;;30.60;24.45;;;14.50;62.60;;;;;;5124764;27;20047;-59
2022/04/22 10:54:52;;;;;;;24.65;22.02;;;14.40;63.10;;;;;;5109920;27;20019;-54
2022/04/22 10:57:19;;;;;;;33.42;24.48;;;14.40;63.20;;;;;;5133057;27;20023;-51
2022/04/22 10:59:48;;;;;;;25.85;21.80;;;14.40;63.60;;;;;;5134177;27;20034;-55
2022/04/22 11:02:35;;;;;;;25.10;21.00;;;14.40;63.20;;;;;;5116283;27;20024;-55
2022/04/22 11:05:30;;;;;;;25.95;20.95;;;14.40;62.90;;;;;;5115533;27;20023;-55
2022/04/22 11:07:57;;;;;;;26.00;21.92;;;14.40;62.80;;;;;;5133746;27;20114;-56
2022/04/22 11:10:25;;;;;;;23.10;20.58;;;14.20;63.60;;;;;;5115951;27;20027;-52
2022/04/22 11:12:55;;;;;;;22.83;19.30;;;14.20;63.60;;;;;;5133250;27;20023;-54
2022/04/22 11:15:42;;;;;;;26.13;21.40;;;14.30;63.20;;;;;;5116141;27;20026;-50
2022/04/22 11:18:12;;;;;;;21.38;18.98;;;14.40;62.80;;;;;;5115866;27;20026;-52
2022/04/22 11:20:42;;;;;;;21.27;18.50;;;14.30;62.40;;;;;;5115304;27;20031;-53
2022/04/22 11:23:12;;;;;;;24.77;19.90;;;14.30;62.40;;;;;;5115629;27;20027;-54
2022/04/22 11:25:38;;;;;;;23.42;20.13;;;14.30;62.60;;;;;;5133757;27;20321;-48
2022/04/22 11:28:05;;;;;;;24.60;20.50;;;14.30;62.80;;;;;;5115800;27;20030;-54
2022/04/22 11:30:32;;;;;;;25.52;20.00;;;14.30;62.90;;;;;;5134009;27;20094;-60
2022/04/22 11:33:26;;;;;;;21.70;19.48;;;14.20;63.20;;;;;;5115772;27;20507;-55
2022/04/22 11:35:58;;;;;;;22.30;19.92;;;14.10;63.90;;;;;;5133452;27;20317;-54
2022/04/22 11:38:24;;;;;;;23.42;20.42;;;14.10;63.70;;;;;;5134162;27;20019;-52
2022/04/22 11:40:50;;;;;;;23.42;20.92;;;14.10;63.90;;;;;;5133269;27;20023;-53
2022/04/22 11:43:21;;;;;;;24.02;21.45;;;14.10;64.40;;;;;;5098484;27;20124;-54
2022/04/22 11:45:49;;;;;;;26.42;21.08;;;14.10;64.60;;;;;;5114851;27;20064;-51
2022/04/22 11:48:37;;;;;;;28.95;21.90;;;14.10;65.00;;;;;;5115319;27;20023;-54
2022/04/22 11:51:02;;;;;;;22.38;20.00;;;14.10;65.10;;;;;;5133564;27;20115;-49
2022/04/22 11:53:32;;;;;;;23.85;20.38;;;14.10;65.10;;;;;;5133535;27;20023;-52
2022/04/22 11:56:00;;;;;;;24.00;20.02;;;14.10;64.80;;;;;;5114338;27;20023;-53
2022/04/22 11:58:29;;;;;;;22.67;19.77;;;14.10;64.80;;;;;;5133730;27;20015;-55
2022/04/22 12:06:26;;;;;;;22.35;19.13;;;14.10;65.00;;;;;;5133564;27;20064;-56
2022/04/22 12:09:02;;;;;;;21.95;19.55;;;14.00;65.00;;;;;;5133016;27;20596;-53
2022/04/22 12:11:29;;;;;;;24.38;19.55;;;14.00;65.80;;;;;;5115185;27;20027;-54
2022/04/22 12:13:56;;;;;;;23.35;20.88;;;13.80;66.20;;;;;;5132608;27;20011;-48
2022/04/22 12:16:26;;;;;;;29.48;21.75;;;13.60;67.00;;;;;;5133849;27;20023;-51
2022/04/22 12:18:54;;;;;;;24.92;21.23;;;13.80;67.30;;;;;;5114626;27;20029;-52
2022/04/22 12:21:20;;;;;;;22.83;19.33;;;13.90;66.80;;;;;;5133853;27;20035;-53
2022/04/22 12:23:48;;;;;;;22.10;19.42;;;13.90;66.40;;;;;;5132711;27;20035;-48
2022/04/22 12:26:44;;;;;;;23.50;18.05;;;14.00;66.80;;;;;;5133910;27;20046;-53
2022/04/22 12:29:13;;;;;;;20.83;18.45;;;14.10;66.30;;;;;;5115167;27;20491;-47
2022/04/22 12:31:42;;;;;;;24.98;19.77;;;14.20;65.90;;;;;;5133027;27;20034;-53
2022/04/22 12:34:11;;;;;;;20.05;17.27;;;14.40;65.70;;;;;;5115075;27;20114;-50
2022/04/22 12:36:39;;;;;;;25.60;19.23;;;14.40;65.20;;;;;;5114611;27;20467;-55
2022/04/22 12:39:06;;;;;;;21.50;19.10;;;14.30;65.90;;;;;;5115069;27;20034;-49
2022/04/22 12:41:44;;;;;;;21.73;19.50;;;14.00;66.20;;;;;;5114800;27;20070;-54
2022/04/22 12:44:14;;;;;;;22.02;17.20;;;14.10;66.60;;;;;;5115005;27;20055;-50
2022/04/22 12:52:23;;;;;;;23.08;18.10;;;13.70;66.70;;;;;;5133347;27;20030;-49
2022/04/22 12:54:49;;;;;;;23.47;19.17;;;13.90;67.30;;;;;;5114028;27;20028;-51
2022/04/22 12:57:19;;;;;;;19.42;17.35;;;14.00;66.80;;;;;;5114595;27;20047;-51
2022/04/22 12:59:50;;;;;;;21.20;17.08;;;14.00;66.80;;;;;;5131432;27;20043;-53
2022/04/22 13:02:19;;;;;;;18.05;16.05;;;14.10;66.60;;;;;;5133111;27;20022;-50
2022/04/22 13:04:51;;;;;;;20.38;15.73;;;14.10;65.70;;;;;;5133885;27;20059;-53
2022/04/22 13:07:16;;;;;;;21.45;16.63;;;13.80;66.00;;;;;;5114752;27;20383;-49
2022/04/22 13:09:42;;;;;;;23.70;20.50;;;13.70;66.90;;;;;;5131726;27;20020;-50
2022/04/22 13:12:09;;;;;;;23.70;19.38;;;13.70;67.00;;;;;;5132295;27;20030;-48
2022/04/22 13:14:35;;;;;;;19.17;17.08;;;13.80;67.50;;;;;;5114130;27;20062;-55
2022/04/22 13:17:02;;;;;;;18.63;16.10;;;13.60;67.30;;;;;;5113881;27;20047;-53
2022/04/22 13:19:28;;;;;;;20.52;17.40;;;13.50;67.70;;;;;;5132803;27;20030;-52
2022/04/22 13:21:55;;;;;;;18.08;16.20;;;13.50;67.60;;;;;;5113569;27;20027;-52
2022/04/22 13:24:21;;;;;;;19.90;17.20;;;13.40;67.90;;;;;;5114717;27;20067;-54
2022/04/22 13:26:47;;;;;;;19.40;17.15;;;13.50;68.30;;;;;;5113235;27;20027;-53
2022/04/22 13:29:12;;;;;;;19.88;17.77;;;13.50;68.50;;;;;;5132361;27;20152;-54
2022/04/22 13:31:38;;;;;;;24.83;20.25;;;13.50;68.10;;;;;;5132308;27;20432;-57
2022/04/22 13:34:04;;;;;;;24.60;20.35;;;13.50;68.00;;;;;;5131942;27;20473;-52
2022/04/22 13:36:37;;;;;;;28.30;21.98;;;13.50;68.60;;;;;;5132254;27;20019;-51
2022/04/22 13:39:03;;;;;;;27.25;20.70;;;13.50;68.90;;;;;;5113384;28;20024;-56
2022/04/22 13:41:29;;;;;;;23.70;19.00;;;13.50;69.00;;;;;;5113710;27;20483;-55
2022/04/22 13:52:20;;;;;;;20.85;18.65;;;13.40;69.10;;;;;;5112690;27;20027;-54
2022/04/22 13:52:29;;;;;;;20.92;18.55;;;13.40;70.30;;;;;;5089785;28;20042;-52
2022/04/22 13:54:55;;;;;;;20.40;18.13;;;13.40;70.50;;;;;;5113151;28;20024;-54
2022/04/22 13:57:21;;;;;;;23.15;18.88;;;13.50;70.40;;;;;;5132069;27;20106;-50